»·PEaware :: N333ZS KTOA-KSBA

N333ZS :: KTOA-KSBA

FLIGHT INFORMATION

Flight Status: Arrived
Operator: Privately registered:
United States
More flights under this callsign
Pilot: Judd H. (29974)
Aircraft: CESSNA 182 SKYLANE
(C182)
More flights by this aircraft type
Origin: KTOA Zamperini
United States
Destination: KSBA Santa Barbara Mun
United States
More flights between these airports :: More routes between these airports
Route: LAX170 LIMBO V8 WILMA V25 LAX V299 VTU VTU282/26 KWANG
File this flight plan on PilotEdge
Remarks:
Altitude:
(Current/Filed)
8,000ft
Speed:
(Current/Filed)
120kts
Departed: 11-Oct-20 05:05 PM
Arrived: 11-Oct-20 05:49 PM
Distance/Time
Traveled:
83nm/0:44
Distance/Time
To Go:
Arrived

Flight Plot

Page will automatically refresh every two minutes.

Flight plan parsing failed; only flown route is shown


Map Options




Map Legend


Flown Route
Filed Route
Departure Airport
Arrival Airport
Navaid (VOR, NDB)
Fix

Horizontal Profiles

Position Reports

Time Latitude Longitude Heading Altitude Ground
Speed
11-Oct-20 16:39 33.801328 -118.341026 219 106ft 0kts
11-Oct-20 16:40 33.801328 -118.341026 219 106ft 0kts
11-Oct-20 16:41 33.801325 -118.341029 219 106ft 0kts
11-Oct-20 16:42 33.801323 -118.341031 219 106ft 0kts
11-Oct-20 16:43 33.801321 -118.341033 219 106ft 0kts
11-Oct-20 16:44 33.801319 -118.341035 219 106ft 0kts
11-Oct-20 16:45 33.801317 -118.341037 219 106ft 0kts
11-Oct-20 16:46 33.801315 -118.341039 219 106ft 0kts
11-Oct-20 16:47 33.801313 -118.341041 219 106ft 0kts
11-Oct-20 16:48 33.801311 -118.341043 219 106ft 0kts
11-Oct-20 16:50 33.801306 -118.341047 219 106ft 0kts
11-Oct-20 16:51 33.801304 -118.341049 219 106ft 0kts
11-Oct-20 16:52 33.801302 -118.341051 219 106ft 0kts
11-Oct-20 16:53 33.801300 -118.341053 219 106ft 0kts
11-Oct-20 16:55 33.801298 -118.341055 219 106ft 0kts
11-Oct-20 16:56 33.801296 -118.341058 219 106ft 0kts
11-Oct-20 16:57 33.801294 -118.341060 219 106ft 0kts
11-Oct-20 16:58 33.801292 -118.341062 219 106ft 0kts
11-Oct-20 16:59 33.801373 -118.340715 118 106ft 17kts
11-Oct-20 17:00 33.800009 -118.337592 127 106ft 15kts
11-Oct-20 17:01 33.798537 -118.333668 56 106ft 11kts
11-Oct-20 17:02 33.798850 -118.333215 352 106ft 0kts
11-Oct-20 17:03 33.798979 -118.333243 349 106ft 4kts
11-Oct-20 17:04 33.800213 -118.333921 310 106ft 37kts
11-Oct-20 17:05 33.814443 -118.355232 306 677ft 102kts
11-Oct-20 17:06 33.829875 -118.380422 300 1317ft 89kts
11-Oct-20 17:07 33.842870 -118.405584 304 1961ft 88kts
11-Oct-20 17:08 33.863279 -118.419092 357 2541ft 91kts
11-Oct-20 17:09 33.887579 -118.423518 347 3169ft 85kts
11-Oct-20 17:10 33.910001 -118.429861 349 3859ft 80kts
11-Oct-20 17:11 33.931492 -118.437562 308 4556ft 89kts
11-Oct-20 17:12 33.941206 -118.464914 297 5302ft 87kts
11-Oct-20 17:12 33.949486 -118.487560 291 5928ft 90kts
11-Oct-20 17:14 33.963835 -118.528644 296 6058ft 131kts
11-Oct-20 17:14 33.974683 -118.564180 291 6049ft 137kts
11-Oct-20 17:15 33.985715 -118.608859 292 6004ft 139kts
11-Oct-20 17:16 33.998902 -118.651545 299 6031ft 134kts
11-Oct-20 17:17 34.010597 -118.694973 293 6000ft 138kts
11-Oct-20 17:18 34.024155 -118.737787 295 5949ft 137kts
11-Oct-20 17:19 34.036373 -118.779884 295 5992ft 133kts
11-Oct-20 17:20 34.047887 -118.822553 293 5998ft 133kts
11-Oct-20 17:21 34.059947 -118.865115 298 6003ft 132kts
11-Oct-20 17:22 34.073394 -118.906474 296 6016ft 133kts
11-Oct-20 17:23 34.085612 -118.948800 293 6016ft 134kts
11-Oct-20 17:24 34.096845 -118.991675 293 6029ft 134kts
11-Oct-20 17:25 34.108227 -119.034476 293 6035ft 134kts
11-Oct-20 17:26 34.124067 -119.074474 304 6040ft 131kts
11-Oct-20 17:27 34.142078 -119.112972 307 6043ft 130kts
11-Oct-20 17:28 34.159342 -119.152089 303 6030ft 132kts
11-Oct-20 17:29 34.176195 -119.191427 301 6049ft 132kts
11-Oct-20 17:30 34.191529 -119.231899 304 6048ft 131kts
11-Oct-20 17:31 34.207791 -119.271638 299 6053ft 133kts
11-Oct-20 17:32 34.223478 -119.311946 303 6047ft 133kts
11-Oct-20 17:33 34.241826 -119.350638 306 6016ft 133kts
11-Oct-20 17:34 34.260471 -119.388607 306 5863ft 127kts
11-Oct-20 17:35 34.278111 -119.428769 303 5228ft 134kts
11-Oct-20 17:36 34.291980 -119.469398 296 4478ft 129kts
11-Oct-20 17:37 34.308936 -119.506504 296 3964ft 121kts
11-Oct-20 17:38 34.321504 -119.541933 296 3990ft 120kts
11-Oct-20 17:39 34.334853 -119.581410 297 4032ft 131kts
11-Oct-20 17:40 34.351559 -119.620165 300 4029ft 130kts
11-Oct-20 17:41 34.366513 -119.658928 300 3832ft 121kts
11-Oct-20 17:42 34.381694 -119.693519 299 3732ft 112kts
11-Oct-20 17:43 34.391395 -119.725808 304 2736ft 98kts
11-Oct-20 17:44 34.402397 -119.755521 295 1820ft 95kts
11-Oct-20 17:45 34.413366 -119.784577 293 951ft 91kts
11-Oct-20 17:46 34.423228 -119.811745 287 516ft 78kts
11-Oct-20 17:47 34.427922 -119.834434 265 48ft 56kts
11-Oct-20 17:48 34.427175 -119.841479 167 13ft 0kts
11-Oct-20 17:49 34.423549 -119.839921 124 13ft 16kts
11-Oct-20 17:50 34.423395 -119.835796 349 13ft 6kts
11-Oct-20 17:51 34.423546 -119.835839 344 13ft 0kts
11-Oct-20 17:52 34.423546 -119.835839 344 13ft 0kts
11-Oct-20 17:53 34.423546 -119.835839 344 13ft 0kts
11-Oct-20 17:54 34.423508 -119.835828 0 13ft 0kts
11-Oct-20 17:55 34.423508 -119.835828 0 13ft 0kts
11-Oct-20 17:56 34.423508 -119.835828 0 13ft 0kts
11-Oct-20 17:57 34.423508 -119.835828 0 13ft 0kts
11-Oct-20 17:58 34.423508 -119.835828 0 13ft 0kts
11-Oct-20 17:59 34.423508 -119.835828 0 13ft 0kts
11-Oct-20 18:00 34.423508 -119.835828 0 13ft 0kts
11-Oct-20 18:01 34.423508 -119.835828 0 13ft 0kts
11-Oct-20 18:02 34.423508 -119.835828 0 13ft 0kts

Navigation Log

Ident Type
Flight plan parsing failed, navigation log unavailable